sensor_id;sensor_type;location;lat;lon;timestamp;temperature;humidity
69595;DHT22;56800;52.142;5.364;2024-01-15T00:00:16;2.90;86.90
69595;DHT22;56800;52.142;5.364;2024-01-15T00:02:43;2.80;87.60
69595;DHT22;56800;52.142;5.364;2024-01-15T00:05:10;2.80;86.80
69595;DHT22;56800;52.142;5.364;2024-01-15T00:07:36;2.80;86.80
69595;DHT22;56800;52.142;5.364;2024-01-15T00:10:04;2.70;86.80
69595;DHT22;56800;52.142;5.364;2024-01-15T00:12:30;2.70;86.70
69595;DHT22;56800;52.142;5.364;2024-01-15T00:14:57;2.70;86.70
69595;DHT22;56800;52.142;5.364;2024-01-15T00:17:24;2.70;86.70
69595;DHT22;56800;52.142;5.364;2024-01-15T00:19:51;2.70;86.70
69595;DHT22;56800;52.142;5.364;2024-01-15T00:22:18;2.60;86.50
69595;DHT22;56800;52.142;5.364;2024-01-15T00:24:45;2.60;86.60
69595;DHT22;56800;52.142;5.364;2024-01-15T00:27:12;2.50;86.60
69595;DHT22;56800;52.142;5.364;2024-01-15T00:29:38;2.50;86.60
69595;DHT22;56800;52.142;5.364;2024-01-15T00:32:05;2.50;86.60
69595;DHT22;56800;52.142;5.364;2024-01-15T00:34:32;2.50;86.60
69595;DHT22;56800;52.142;5.364;2024-01-15T00:36:59;2.50;86.50
69595;DHT22;56800;52.142;5.364;2024-01-15T00:39:26;2.50;87.30
69595;DHT22;56800;52.142;5.364;2024-01-15T00:41:53;2.50;86.50
69595;DHT22;56800;52.142;5.364;2024-01-15T00:44:19;2.50;86.40
69595;DHT22;56800;52.142;5.364;2024-01-15T00:46:46;2.40;86.40
69595;DHT22;56800;52.142;5.364;2024-01-15T00:49:13;2.40;86.20
69595;DHT22;56800;52.142;5.364;2024-01-15T00:51:41;2.40;86.20
69595;DHT22;56800;52.142;5.364;2024-01-15T00:54:08;2.40;86.20
69595;DHT22;56800;52.142;5.364;2024-01-15T00:56:36;2.40;86.10
69595;DHT22;56800;52.142;5.364;2024-01-15T00:59:03;2.30;86.20
69595;DHT22;56800;52.142;5.364;2024-01-15T01:01:29;2.30;86.20
69595;DHT22;56800;52.142;5.364;2024-01-15T01:03:56;2.30;86.20
69595;DHT22;56800;52.142;5.364;2024-01-15T01:06:23;2.30;86.10
69595;DHT22;56800;52.142;5.364;2024-01-15T01:08:50;2.30;86.00
69595;DHT22;56800;52.142;5.364;2024-01-15T01:11:17;2.30;86.00
69595;DHT22;56800;52.142;5.364;2024-01-15T01:13:44;2.30;86.00
69595;DHT22;56800;52.142;5.364;2024-01-15T01:16:10;2.30;86.00
69595;DHT22;56800;52.142;5.364;2024-01-15T01:18:37;2.30;86.00
69595;DHT22;56800;52.142;5.364;2024-01-15T01:21:04;2.30;86.00
69595;DHT22;56800;52.142;5.364;2024-01-15T01:23:31;2.30;86.00
69595;DHT22;56800;52.142;5.364;2024-01-15T01:25:57;2.20;85.90
69595;DHT22;56800;52.142;5.364;2024-01-15T01:28:24;2.30;86.00
69595;DHT22;56800;52.142;5.364;2024-01-15T01:30:51;2.20;85.90
69595;DHT22;56800;52.142;5.364;2024-01-15T01:33:18;2.30;86.00
69595;DHT22;56800;52.142;5.364;2024-01-15T01:35:45;2.20;86.70
69595;DHT22;56800;52.142;5.364;2024-01-15T01:38:13;2.20;85.90
69595;DHT22;56800;52.142;5.364;2024-01-15T01:40:39;2.30;86.00
69595;DHT22;56800;52.142;5.364;2024-01-15T01:43:06;2.20;85.90
69595;DHT22;56800;52.142;5.364;2024-01-15T01:45:35;2.20;86.00
69595;DHT22;56800;52.142;5.364;2024-01-15T01:48:02;2.20;85.90
69595;DHT22;56800;52.142;5.364;2024-01-15T01:50:31;2.20;86.00
69595;DHT22;56800;52.142;5.364;2024-01-15T01:52:59;2.20;85.90
69595;DHT22;56800;52.142;5.364;2024-01-15T01:55:27;2.20;85.90
69595;DHT22;56800;52.142;5.364;2024-01-15T01:57:56;2.20;86.00
69595;DHT22;56800;52.142;5.364;2024-01-15T02:00:23;2.20;86.10
69595;DHT22;56800;52.142;5.364;2024-01-15T02:02:50;2.20;86.10
69595;DHT22;56800;52.142;5.364;2024-01-15T02:05:18;2.20;86.20
69595;DHT22;56800;52.142;5.364;2024-01-15T02:07:46;2.30;86.30
69595;DHT22;56800;52.142;5.364;2024-01-15T02:10:13;2.30;86.40
69595;DHT22;56800;52.142;5.364;2024-01-15T02:12:42;2.30;86.50
69595;DHT22;56800;52.142;5.364;2024-01-15T02:15:09;2.40;86.60
69595;DHT22;56800;52.142;5.364;2024-01-15T02:17:59;2.40;86.60
69595;DHT22;56800;52.142;5.364;2024-01-15T02:20:26;2.40;86.60
69595;DHT22;56800;52.142;5.364;2024-01-15T02:22:53;2.50;86.70
69595;DHT22;56800;52.142;5.364;2024-01-15T02:25:19;2.50;86.80
69595;DHT22;56800;52.142;5.364;2024-01-15T02:27:47;2.50;86.70
69595;DHT22;56800;52.142;5.364;2024-01-15T02:30:14;2.50;86.60
69595;DHT22;56800;52.142;5.364;2024-01-15T02:32:42;2.50;86.60
69595;DHT22;56800;52.142;5.364;2024-01-15T02:35:09;2.60;86.70
69595;DHT22;56800;52.142;5.364;2024-01-15T02:37:36;2.50;86.70
69595;DHT22;56800;52.142;5.364;2024-01-15T02:40:02;2.50;86.60
69595;DHT22;56800;52.142;5.364;2024-01-15T02:42:30;2.60;86.60
69595;DHT22;56800;52.142;5.364;2024-01-15T02:44:57;2.50;86.70
69595;DHT22;56800;52.142;5.364;2024-01-15T02:47:23;2.50;86.70
69595;DHT22;56800;52.142;5.364;2024-01-15T02:49:50;2.50;86.70
69595;DHT22;56800;52.142;5.364;2024-01-15T02:52:17;2.50;86.60
69595;DHT22;56800;52.142;5.364;2024-01-15T02:54:44;2.50;86.90
69595;DHT22;56800;52.142;5.364;2024-01-15T02:57:11;2.50;86.80
69595;DHT22;56800;52.142;5.364;2024-01-15T02:59:38;2.50;86.90
69595;DHT22;56800;52.142;5.364;2024-01-15T03:02:04;2.50;86.90
69595;DHT22;56800;52.142;5.364;2024-01-15T03:04:31;2.50;86.90
69595;DHT22;56800;52.142;5.364;2024-01-15T03:06:58;2.50;86.90
69595;DHT22;56800;52.142;5.364;2024-01-15T03:09:25;2.50;86.90
69595;DHT22;56800;52.142;5.364;2024-01-15T03:11:52;2.50;86.90
69595;DHT22;56800;52.142;5.364;2024-01-15T03:14:18;2.50;86.90
69595;DHT22;56800;52.142;5.364;2024-01-15T03:16:46;2.50;86.80
69595;DHT22;56800;52.142;5.364;2024-01-15T03:19:13;2.50;86.80
69595;DHT22;56800;52.142;5.364;2024-01-15T03:21:40;2.50;86.80
69595;DHT22;56800;52.142;5.364;2024-01-15T03:24:07;2.50;86.80
69595;DHT22;56800;52.142;5.364;2024-01-15T03:26:33;2.40;86.70
69595;DHT22;56800;52.142;5.364;2024-01-15T03:29:00;2.40;86.70
69595;DHT22;56800;52.142;5.364;2024-01-15T03:31:27;2.40;86.70
69595;DHT22;56800;52.142;5.364;2024-01-15T03:33:54;2.40;86.70
69595;DHT22;56800;52.142;5.364;2024-01-15T03:36:21;2.40;86.90
69595;DHT22;56800;52.142;5.364;2024-01-15T03:38:47;2.40;87.00
69595;DHT22;56800;52.142;5.364;2024-01-15T03:41:14;2.40;87.10
69595;DHT22;56800;52.142;5.364;2024-01-15T03:43:41;2.40;87.20
69595;DHT22;56800;52.142;5.364;2024-01-15T03:46:08;2.40;87.10
69595;DHT22;56800;52.142;5.364;2024-01-15T03:48:34;2.50;87.10
69595;DHT22;56800;52.142;5.364;2024-01-15T03:51:01;2.40;86.90
69595;DHT22;56800;52.142;5.364;2024-01-15T03:53:28;2.40;87.00
69595;DHT22;56800;52.142;5.364;2024-01-15T03:55:55;2.40;86.90
69595;DHT22;56800;52.142;5.364;2024-01-15T03:58:22;2.40;86.90
69595;DHT22;56800;52.142;5.364;2024-01-15T04:00:48;2.40;86.90
69595;DHT22;56800;52.142;5.364;2024-01-15T04:03:15;2.40;86.90
69595;DHT22;56800;52.142;5.364;2024-01-15T04:05:42;2.40;86.80
69595;DHT22;56800;52.142;5.364;2024-01-15T04:08:09;2.30;86.60
69595;DHT22;56800;52.142;5.364;2024-01-15T04:10:36;2.30;86.60
69595;DHT22;56800;52.142;5.364;2024-01-15T04:13:03;2.30;86.60
69595;DHT22;56800;52.142;5.364;2024-01-15T04:15:30;2.20;86.60
69595;DHT22;56800;52.142;5.364;2024-01-15T04:17:57;2.20;86.60
69595;DHT22;56800;52.142;5.364;2024-01-15T04:20:23;2.20;86.60
69595;DHT22;56800;52.142;5.364;2024-01-15T04:22:51;2.20;86.60
69595;DHT22;56800;52.142;5.364;2024-01-15T04:25:18;2.10;86.70
69595;DHT22;56800;52.142;5.364;2024-01-15T04:27:45;2.20;86.80
69595;DHT22;56800;52.142;5.364;2024-01-15T04:30:12;2.20;86.80
69595;DHT22;56800;52.142;5.364;2024-01-15T04:32:39;2.10;86.80
69595;DHT22;56800;52.142;5.364;2024-01-15T04:35:06;2.10;87.00
69595;DHT22;56800;52.142;5.364;2024-01-15T04:37:33;2.20;87.00
69595;DHT22;56800;52.142;5.364;2024-01-15T04:40:00;2.20;87.00
69595;DHT22;56800;52.142;5.364;2024-01-15T04:42:26;2.20;87.00
69595;DHT22;56800;52.142;5.364;2024-01-15T04:44:53;2.20;87.00
69595;DHT22;56800;52.142;5.364;2024-01-15T04:47:20;2.20;87.00
69595;DHT22;56800;52.142;5.364;2024-01-15T04:49:46;2.20;87.10
69595;DHT22;56800;52.142;5.364;2024-01-15T04:52:15;2.20;87.10
69595;DHT22;56800;52.142;5.364;2024-01-15T04:54:42;2.20;87.20
69595;DHT22;56800;52.142;5.364;2024-01-15T04:57:09;2.20;87.20
69595;DHT22;56800;52.142;5.364;2024-01-15T04:59:36;2.20;87.20
69595;DHT22;56800;52.142;5.364;2024-01-15T05:02:02;2.30;87.20
69595;DHT22;56800;52.142;5.364;2024-01-15T05:04:29;2.30;87.10
69595;DHT22;56800;52.142;5.364;2024-01-15T05:06:56;2.30;87.20
69595;DHT22;56800;52.142;5.364;2024-01-15T05:09:23;2.30;87.30
69595;DHT22;56800;52.142;5.364;2024-01-15T05:11:50;2.30;87.20
69595;DHT22;56800;52.142;5.364;2024-01-15T05:14:17;2.30;87.10
69595;DHT22;56800;52.142;5.364;2024-01-15T05:16:47;2.30;87.10
69595;DHT22;56800;52.142;5.364;2024-01-15T05:19:14;2.30;87.20
69595;DHT22;56800;52.142;5.364;2024-01-15T05:21:41;2.30;87.30
69595;DHT22;56800;52.142;5.364;2024-01-15T05:24:08;2.30;87.30
69595;DHT22;56800;52.142;5.364;2024-01-15T05:26:35;2.30;87.30
69595;DHT22;56800;52.142;5.364;2024-01-15T05:29:01;2.30;87.30
69595;DHT22;56800;52.142;5.364;2024-01-15T05:31:28;2.30;87.30
69595;DHT22;56800;52.142;5.364;2024-01-15T05:33:55;2.30;87.30
69595;DHT22;56800;52.142;5.364;2024-01-15T05:36:22;2.30;87.40
69595;DHT22;56800;52.142;5.364;2024-01-15T05:38:49;2.30;87.30
69595;DHT22;56800;52.142;5.364;2024-01-15T05:41:16;2.30;87.40
69595;DHT22;56800;52.142;5.364;2024-01-15T05:43:43;2.30;87.40
69595;DHT22;56800;52.142;5.364;2024-01-15T05:46:09;2.30;87.40
69595;DHT22;56800;52.142;5.364;2024-01-15T05:48:36;2.30;87.50
69595;DHT22;56800;52.142;5.364;2024-01-15T05:51:03;2.40;87.60
69595;DHT22;56800;52.142;5.364;2024-01-15T05:53:30;2.40;87.60
69595;DHT22;56800;52.142;5.364;2024-01-15T05:55:56;2.40;87.50
69595;DHT22;56800;52.142;5.364;2024-01-15T05:58:23;2.40;87.50
69595;DHT22;56800;52.142;5.364;2024-01-15T06:00:50;2.40;87.50
69595;DHT22;56800;52.142;5.364;2024-01-15T06:03:17;2.40;87.60
69595;DHT22;56800;52.142;5.364;2024-01-15T06:05:43;2.40;87.60
69595;DHT22;56800;52.142;5.364;2024-01-15T06:08:10;2.40;87.60
69595;DHT22;56800;52.142;5.364;2024-01-15T06:10:37;2.40;87.60
69595;DHT22;56800;52.142;5.364;2024-01-15T06:13:03;2.40;87.50
69595;DHT22;56800;52.142;5.364;2024-01-15T06:15:30;2.40;87.50
69595;DHT22;56800;52.142;5.364;2024-01-15T06:17:57;2.40;87.30
69595;DHT22;56800;52.142;5.364;2024-01-15T06:20:24;2.40;87.30
69595;DHT22;56800;52.142;5.364;2024-01-15T06:22:50;2.40;87.30
69595;DHT22;56800;52.142;5.364;2024-01-15T06:25:17;2.30;87.20
69595;DHT22;56800;52.142;5.364;2024-01-15T06:27:44;2.30;87.30
69595;DHT22;56800;52.142;5.364;2024-01-15T06:30:11;2.30;87.30
69595;DHT22;56800;52.142;5.364;2024-01-15T06:32:38;2.30;87.30
69595;DHT22;56800;52.142;5.364;2024-01-15T06:35:06;2.30;87.30
69595;DHT22;56800;52.142;5.364;2024-01-15T06:37:33;2.30;87.30
69595;DHT22;56800;52.142;5.364;2024-01-15T06:39:59;2.30;87.20
69595;DHT22;56800;52.142;5.364;2024-01-15T06:42:26;2.30;87.20
69595;DHT22;56800;52.142;5.364;2024-01-15T06:44:53;2.30;87.20
69595;DHT22;56800;52.142;5.364;2024-01-15T06:47:20;2.30;87.20
69595;DHT22;56800;52.142;5.364;2024-01-15T06:49:46;2.30;87.20
69595;DHT22;56800;52.142;5.364;2024-01-15T06:52:13;2.20;87.30
69595;DHT22;56800;52.142;5.364;2024-01-15T06:54:40;2.30;87.10
69595;DHT22;56800;52.142;5.364;2024-01-15T06:57:07;2.20;87.10
69595;DHT22;56800;52.142;5.364;2024-01-15T06:59:34;2.30;87.20
69595;DHT22;56800;52.142;5.364;2024-01-15T07:02:04;2.30;87.20
69595;DHT22;56800;52.142;5.364;2024-01-15T07:04:31;2.30;87.20
69595;DHT22;56800;52.142;5.364;2024-01-15T07:06:57;2.30;87.20
69595;DHT22;56800;52.142;5.364;2024-01-15T07:09:26;2.30;87.10
69595;DHT22;56800;52.142;5.364;2024-01-15T07:11:53;2.20;87.00
69595;DHT22;56800;52.142;5.364;2024-01-15T07:14:20;2.20;87.00
69595;DHT22;56800;52.142;5.364;2024-01-15T07:16:47;2.20;87.20
69595;DHT22;56800;52.142;5.364;2024-01-15T07:19:14;2.20;87.20
69595;DHT22;56800;52.142;5.364;2024-01-15T07:21:41;2.20;87.20
69595;DHT22;56800;52.142;5.364;2024-01-15T07:24:09;2.20;87.20
69595;DHT22;56800;52.142;5.364;2024-01-15T07:26:37;2.20;87.20
69595;DHT22;56800;52.142;5.364;2024-01-15T07:29:04;2.20;87.90
69595;DHT22;56800;52.142;5.364;2024-01-15T07:31:31;2.20;87.20
69595;DHT22;56800;52.142;5.364;2024-01-15T07:33:59;2.20;87.30
69595;DHT22;56800;52.142;5.364;2024-01-15T07:36:26;2.20;87.40
69595;DHT22;56800;52.142;5.364;2024-01-15T07:38:53;2.20;87.40
69595;DHT22;56800;52.142;5.364;2024-01-15T07:41:20;2.20;87.40
69595;DHT22;56800;52.142;5.364;2024-01-15T07:43:47;2.20;87.40
69595;DHT22;56800;52.142;5.364;2024-01-15T07:46:14;2.20;87.40
69595;DHT22;56800;52.142;5.364;2024-01-15T07:48:41;2.20;87.40
69595;DHT22;56800;52.142;5.364;2024-01-15T07:51:08;2.20;87.40
69595;DHT22;56800;52.142;5.364;2024-01-15T07:53:35;2.20;87.40
69595;DHT22;56800;52.142;5.364;2024-01-15T07:56:02;2.20;87.20
69595;DHT22;56800;52.142;5.364;2024-01-15T07:58:28;2.20;87.20
69595;DHT22;56800;52.142;5.364;2024-01-15T08:01:37;2.20;87.30
69595;DHT22;56800;52.142;5.364;2024-01-15T08:05:16;2.20;87.40
69595;DHT22;56800;52.142;5.364;2024-01-15T08:08:37;2.20;87.40
69595;DHT22;56800;52.142;5.364;2024-01-15T08:11:05;2.20;87.40
69595;DHT22;56800;52.142;5.364;2024-01-15T08:13:32;2.20;87.40
69595;DHT22;56800;52.142;5.364;2024-01-15T08:15:59;2.30;87.40
69595;DHT22;56800;52.142;5.364;2024-01-15T08:18:25;2.20;87.30
69595;DHT22;56800;52.142;5.364;2024-01-15T08:20:54;2.30;87.40
69595;DHT22;56800;52.142;5.364;2024-01-15T08:23:26;2.30;87.30
69595;DHT22;56800;52.142;5.364;2024-01-15T08:25:56;2.20;87.20
69595;DHT22;56800;52.142;5.364;2024-01-15T08:28:23;2.30;87.30
69595;DHT22;56800;52.142;5.364;2024-01-15T08:30:50;2.30;87.30
69595;DHT22;56800;52.142;5.364;2024-01-15T08:33:16;2.30;87.20
69595;DHT22;56800;52.142;5.364;2024-01-15T08:35:48;2.30;87.20
69595;DHT22;56800;52.142;5.364;2024-01-15T08:38:15;2.20;87.10
69595;DHT22;56800;52.142;5.364;2024-01-15T08:40:42;2.20;87.10
69595;DHT22;56800;52.142;5.364;2024-01-15T08:43:08;2.20;87.20
69595;DHT22;56800;52.142;5.364;2024-01-15T08:45:35;2.20;87.40
69595;DHT22;56800;52.142;5.364;2024-01-15T08:48:02;2.20;87.60
69595;DHT22;56800;52.142;5.364;2024-01-15T08:50:31;2.30;88.00
69595;DHT22;56800;52.142;5.364;2024-01-15T08:52:59;2.40;88.20
69595;DHT22;56800;52.142;5.364;2024-01-15T08:55:26;2.50;88.00
69595;DHT22;56800;52.142;5.364;2024-01-15T08:57:53;2.50;87.70
69595;DHT22;56800;52.142;5.364;2024-01-15T09:00:20;2.50;87.40
69595;DHT22;56800;52.142;5.364;2024-01-15T09:02:47;2.50;87.20
69595;DHT22;56800;52.142;5.364;2024-01-15T09:05:13;2.50;87.10
69595;DHT22;56800;52.142;5.364;2024-01-15T09:07:40;2.50;87.10
69595;DHT22;56800;52.142;5.364;2024-01-15T09:10:07;2.50;87.20
69595;DHT22;56800;52.142;5.364;2024-01-15T09:12:34;2.50;87.10
69595;DHT22;56800;52.142;5.364;2024-01-15T09:15:03;2.50;87.00
69595;DHT22;56800;52.142;5.364;2024-01-15T09:17:32;2.50;86.80
69595;DHT22;56800;52.142;5.364;2024-01-15T09:19:59;2.40;86.80
69595;DHT22;56800;52.142;5.364;2024-01-15T09:22:26;2.40;87.00
69595;DHT22;56800;52.142;5.364;2024-01-15T09:24:53;2.40;87.10
69595;DHT22;56800;52.142;5.364;2024-01-15T09:27:19;2.40;87.20
69595;DHT22;56800;52.142;5.364;2024-01-15T09:29:46;2.40;87.20
69595;DHT22;56800;52.142;5.364;2024-01-15T09:32:13;2.40;87.10
69595;DHT22;56800;52.142;5.364;2024-01-15T09:34:40;2.40;87.20
69595;DHT22;56800;52.142;5.364;2024-01-15T09:37:08;2.50;87.40
69595;DHT22;56800;52.142;5.364;2024-01-15T09:39:36;2.50;87.40
69595;DHT22;56800;52.142;5.364;2024-01-15T09:42:03;2.60;88.30
69595;DHT22;56800;52.142;5.364;2024-01-15T09:44:31;2.80;88.90
69595;DHT22;56800;52.142;5.364;2024-01-15T09:46:58;3.00;88.30
69595;DHT22;56800;52.142;5.364;2024-01-15T09:49:26;3.00;87.40
69595;DHT22;56800;52.142;5.364;2024-01-15T09:51:54;3.00;86.80
69595;DHT22;56800;52.142;5.364;2024-01-15T09:54:32;3.00;86.50
69595;DHT22;56800;52.142;5.364;2024-01-15T09:57:00;2.90;86.30
69595;DHT22;56800;52.142;5.364;2024-01-15T09:59:28;2.80;86.30
69595;DHT22;56800;52.142;5.364;2024-01-15T10:01:55;2.80;86.20
69595;DHT22;56800;52.142;5.364;2024-01-15T10:04:23;2.80;86.10
69595;DHT22;56800;52.142;5.364;2024-01-15T10:06:51;2.80;86.30
69595;DHT22;56800;52.142;5.364;2024-01-15T10:09:18;2.80;88.20
69595;DHT22;56800;52.142;5.364;2024-01-15T10:11:45;3.40;90.40
69595;DHT22;56800;52.142;5.364;2024-01-15T10:14:12;3.90;89.60
69595;DHT22;56800;52.142;5.364;2024-01-15T10:16:40;4.00;86.70
69595;DHT22;56800;52.142;5.364;2024-01-15T10:19:07;3.90;85.70
69595;DHT22;56800;52.142;5.364;2024-01-15T10:21:35;4.10;87.70
69595;DHT22;56800;52.142;5.364;2024-01-15T10:24:03;4.50;89.40
69595;DHT22;56800;52.142;5.364;2024-01-15T10:26:31;4.90;87.40
69595;DHT22;56800;52.142;5.364;2024-01-15T10:29:01;4.90;84.30
69595;DHT22;56800;52.142;5.364;2024-01-15T10:31:27;4.60;82.70
69595;DHT22;56800;52.142;5.364;2024-01-15T10:34:12;4.30;82.50
69595;DHT22;56800;52.142;5.364;2024-01-15T10:36:45;3.90;82.70
69595;DHT22;56800;52.142;5.364;2024-01-15T10:39:14;3.70;83.20
69595;DHT22;56800;52.142;5.364;2024-01-15T10:41:41;3.60;83.80
69595;DHT22;56800;52.142;5.364;2024-01-15T10:44:07;3.60;84.80
69595;DHT22;56800;52.142;5.364;2024-01-15T10:46:35;3.70;86.00
69595;DHT22;56800;52.142;5.364;2024-01-15T10:49:02;3.90;86.90
69595;DHT22;56800;52.142;5.364;2024-01-15T10:51:29;4.00;85.50
69595;DHT22;56800;52.142;5.364;2024-01-15T10:53:57;4.00;85.00
69595;DHT22;56800;52.142;5.364;2024-01-15T10:56:25;4.10;85.20
69595;DHT22;56800;52.142;5.364;2024-01-15T10:58:54;4.10;84.80
69595;DHT22;56800;52.142;5.364;2024-01-15T11:01:26;4.10;84.60
69595;DHT22;56800;52.142;5.364;2024-01-15T11:03:56;4.10;84.60
69595;DHT22;56800;52.142;5.364;2024-01-15T11:06:24;4.00;84.40
69595;DHT22;56800;52.142;5.364;2024-01-15T11:08:52;4.00;85.00
69595;DHT22;56800;52.142;5.364;2024-01-15T11:11:21;4.00;84.60
69595;DHT22;56800;52.142;5.364;2024-01-15T11:13:48;4.00;84.40
69595;DHT22;56800;52.142;5.364;2024-01-15T11:16:18;3.90;84.30
69595;DHT22;56800;52.142;5.364;2024-01-15T11:21:25;3.60;84.40
69595;DHT22;56800;52.142;5.364;2024-01-15T11:23:57;3.60;84.50
69595;DHT22;56800;52.142;5.364;2024-01-15T11:26:34;3.50;84.60
69595;DHT22;56800;52.142;5.364;2024-01-15T11:34:56;3.50;85.30
69595;DHT22;56800;52.142;5.364;2024-01-15T11:37:29;3.60;85.70
69595;DHT22;56800;52.142;5.364;2024-01-15T11:40:18;3.60;85.20
69595;DHT22;56800;52.142;5.364;2024-01-15T11:42:46;3.50;84.80
69595;DHT22;56800;52.142;5.364;2024-01-15T11:45:16;3.70;86.30
69595;DHT22;56800;52.142;5.364;2024-01-15T11:48:12;3.90;86.10
69595;DHT22;56800;52.142;5.364;2024-01-15T11:50:44;3.90;85.00
69595;DHT22;56800;52.142;5.364;2024-01-15T11:53:36;3.90;84.80
69595;DHT22;56800;52.142;5.364;2024-01-15T11:56:14;3.90;84.80
69595;DHT22;56800;52.142;5.364;2024-01-15T11:58:41;3.90;84.80
69595;DHT22;56800;52.142;5.364;2024-01-15T12:01:08;3.80;84.30
69595;DHT22;56800;52.142;5.364;2024-01-15T12:03:35;3.80;84.30
69595;DHT22;56800;52.142;5.364;2024-01-15T12:06:05;3.80;85.50
69595;DHT22;56800;52.142;5.364;2024-01-15T12:08:32;3.90;85.40
69595;DHT22;56800;52.142;5.364;2024-01-15T12:10:59;4.00;84.80
69595;DHT22;56800;52.142;5.364;2024-01-15T12:13:27;4.00;84.50
69595;DHT22;56800;52.142;5.364;2024-01-15T12:15:54;4.00;84.80
69595;DHT22;56800;52.142;5.364;2024-01-15T12:18:21;4.00;84.90
69595;DHT22;56800;52.142;5.364;2024-01-15T12:20:48;4.10;85.10
69595;DHT22;56800;52.142;5.364;2024-01-15T12:23:15;4.10;84.70
69595;DHT22;56800;52.142;5.364;2024-01-15T12:25:43;4.10;84.00
69595;DHT22;56800;52.142;5.364;2024-01-15T12:28:10;4.00;84.00
69595;DHT22;56800;52.142;5.364;2024-01-15T12:30:37;4.00;84.30
69595;DHT22;56800;52.142;5.364;2024-01-15T12:33:05;3.90;84.00
69595;DHT22;56800;52.142;5.364;2024-01-15T12:35:37;3.80;83.90
69595;DHT22;56800;52.142;5.364;2024-01-15T12:38:04;3.70;83.90
69595;DHT22;56800;52.142;5.364;2024-01-15T12:40:32;3.60;83.70
69595;DHT22;56800;52.142;5.364;2024-01-15T12:43:00;3.50;83.70
69595;DHT22;56800;52.142;5.364;2024-01-15T12:45:27;3.30;83.60
69595;DHT22;56800;52.142;5.364;2024-01-15T12:47:54;3.20;83.80
69595;DHT22;56800;52.142;5.364;2024-01-15T12:50:24;3.10;84.00
69595;DHT22;56800;52.142;5.364;2024-01-15T12:52:51;3.10;84.20
69595;DHT22;56800;52.142;5.364;2024-01-15T12:55:18;3.00;84.50
69595;DHT22;56800;52.142;5.364;2024-01-15T12:57:46;3.00;84.50
69595;DHT22;56800;52.142;5.364;2024-01-15T13:00:13;3.00;84.70
69595;DHT22;56800;52.142;5.364;2024-01-15T13:02:42;3.00;84.80
69595;DHT22;56800;52.142;5.364;2024-01-15T13:05:11;3.00;84.90
69595;DHT22;56800;52.142;5.364;2024-01-15T13:07:40;3.00;84.90
69595;DHT22;56800;52.142;5.364;2024-01-15T13:10:07;3.00;84.90
69595;DHT22;56800;52.142;5.364;2024-01-15T13:12:36;3.00;84.90
69595;DHT22;56800;52.142;5.364;2024-01-15T13:15:03;3.00;84.90
69595;DHT22;56800;52.142;5.364;2024-01-15T13:17:30;3.00;84.90
69595;DHT22;56800;52.142;5.364;2024-01-15T13:19:57;3.00;85.00
69595;DHT22;56800;52.142;5.364;2024-01-15T13:22:25;3.00;85.10
69595;DHT22;56800;52.142;5.364;2024-01-15T13:24:59;3.00;85.30
69595;DHT22;56800;52.142;5.364;2024-01-15T13:27:26;3.00;85.30
69595;DHT22;56800;52.142;5.364;2024-01-15T13:29:53;3.00;85.30
69595;DHT22;56800;52.142;5.364;2024-01-15T13:32:28;3.10;85.30
69595;DHT22;56800;52.142;5.364;2024-01-15T13:34:56;3.10;85.30
69595;DHT22;56800;52.142;5.364;2024-01-15T13:37:23;3.10;85.30
69595;DHT22;56800;52.142;5.364;2024-01-15T13:39:51;3.20;85.30
69595;DHT22;56800;52.142;5.364;2024-01-15T13:42:20;3.20;85.20
69595;DHT22;56800;52.142;5.364;2024-01-15T13:44:50;3.10;85.90
69595;DHT22;56800;52.142;5.364;2024-01-15T13:47:18;3.20;85.10
69595;DHT22;56800;52.142;5.364;2024-01-15T13:49:45;3.10;85.00
69595;DHT22;56800;52.142;5.364;2024-01-15T13:52:12;3.10;85.00
69595;DHT22;56800;52.142;5.364;2024-01-15T13:54:39;3.10;85.00
69595;DHT22;56800;52.142;5.364;2024-01-15T13:57:17;3.10;85.10
69595;DHT22;56800;52.142;5.364;2024-01-15T13:59:44;3.10;85.30
69595;DHT22;56800;52.142;5.364;2024-01-15T14:02:11;3.10;85.20
69595;DHT22;56800;52.142;5.364;2024-01-15T14:04:41;3.10;85.10
69595;DHT22;56800;52.142;5.364;2024-01-15T14:07:10;3.20;85.20
69595;DHT22;56800;52.142;5.364;2024-01-15T14:09:37;3.10;85.10
69595;DHT22;56800;52.142;5.364;2024-01-15T14:12:05;3.10;85.20
69595;DHT22;56800;52.142;5.364;2024-01-15T14:14:33;3.20;85.20
69595;DHT22;56800;52.142;5.364;2024-01-15T14:16:59;3.20;86.00
69595;DHT22;56800;52.142;5.364;2024-01-15T14:19:26;3.20;85.20
69595;DHT22;56800;52.142;5.364;2024-01-15T14:21:53;3.20;85.00
69595;DHT22;56800;52.142;5.364;2024-01-15T14:24:20;3.20;84.90
69595;DHT22;56800;52.142;5.364;2024-01-15T14:26:47;3.20;84.90
69595;DHT22;56800;52.142;5.364;2024-01-15T14:29:14;3.20;84.90
69595;DHT22;56800;52.142;5.364;2024-01-15T14:31:40;3.20;84.70
69595;DHT22;56800;52.142;5.364;2024-01-15T14:34:07;3.20;84.70
69595;DHT22;56800;52.142;5.364;2024-01-15T14:36:34;3.10;84.60
69595;DHT22;56800;52.142;5.364;2024-01-15T14:39:01;3.10;84.60
69595;DHT22;56800;52.142;5.364;2024-01-15T14:41:29;3.10;84.80
69595;DHT22;56800;52.142;5.364;2024-01-15T14:43:56;3.10;84.90
69595;DHT22;56800;52.142;5.364;2024-01-15T14:46:23;3.10;84.80
69595;DHT22;56800;52.142;5.364;2024-01-15T14:48:50;3.10;84.80
69595;DHT22;56800;52.142;5.364;2024-01-15T14:51:17;3.10;84.80
69595;DHT22;56800;52.142;5.364;2024-01-15T14:53:44;3.10;84.80
69595;DHT22;56800;52.142;5.364;2024-01-15T14:56:10;3.10;84.90
69595;DHT22;56800;52.142;5.364;2024-01-15T14:58:40;3.10;85.00
69595;DHT22;56800;52.142;5.364;2024-01-15T15:01:06;3.10;85.00
69595;DHT22;56800;52.142;5.364;2024-01-15T15:03:33;3.10;85.00
69595;DHT22;56800;52.142;5.364;2024-01-15T15:06:00;3.10;84.90
69595;DHT22;56800;52.142;5.364;2024-01-15T15:08:28;3.10;84.90
69595;DHT22;56800;52.142;5.364;2024-01-15T15:10:55;3.00;84.80
69595;DHT22;56800;52.142;5.364;2024-01-15T15:13:23;3.10;85.70
69595;DHT22;56800;52.142;5.364;2024-01-15T15:16:07;3.00;84.70
69595;DHT22;56800;52.142;5.364;2024-01-15T15:18:34;3.00;84.60
69595;DHT22;56800;52.142;5.364;2024-01-15T15:21:01;3.00;84.60
69595;DHT22;56800;52.142;5.364;2024-01-15T15:23:28;3.00;84.70
69595;DHT22;56800;52.142;5.364;2024-01-15T15:25:55;2.90;84.60
69595;DHT22;56800;52.142;5.364;2024-01-15T15:28:22;2.90;84.60
69595;DHT22;56800;52.142;5.364;2024-01-15T15:30:48;2.90;84.60
69595;DHT22;56800;52.142;5.364;2024-01-15T15:33:15;2.90;84.70
69595;DHT22;56800;52.142;5.364;2024-01-15T15:35:42;2.90;84.90
69595;DHT22;56800;52.142;5.364;2024-01-15T15:38:09;2.90;84.90
69595;DHT22;56800;52.142;5.364;2024-01-15T15:40:36;2.90;85.00
69595;DHT22;56800;52.142;5.364;2024-01-15T15:43:03;2.90;84.90
69595;DHT22;56800;52.142;5.364;2024-01-15T15:45:29;2.90;84.80
69595;DHT22;56800;52.142;5.364;2024-01-15T15:47:56;3.00;85.40
69595;DHT22;56800;52.142;5.364;2024-01-15T15:50:23;2.90;84.50
69595;DHT22;56800;52.142;5.364;2024-01-15T15:52:50;2.90;84.50
69595;DHT22;56800;52.142;5.364;2024-01-15T15:55:16;2.90;84.50
69595;DHT22;56800;52.142;5.364;2024-01-15T15:57:43;2.90;84.50